Time,TemperatureF,DewpointF,PressureIn,WindDirection,WindDirectionDegrees,WindSpeedMPH,WindSpeedGustMPH,Humidity,HourlyPrecipIn,Conditions,Clouds,dailyrainin,SoftwareType,DateUTC
2013-06-27 00:11:00,74.0,-99.9,-100.00,ESE,120,12.0,14.0,-999,-99.99,,,-99.99,,2013-06-27 04:11:00,
2013-06-27 00:33:00,73.0,-99.9,-100.00,ESE,120,12.0,13.0,-999,-99.99,,,-99.99,,2013-06-27 04:33:00,
2013-06-27 00:42:00,73.0,-99.9,-100.00,ESE,120,12.0,13.0,-999,-99.99,,,-99.99,,2013-06-27 04:42:00,
2013-06-27 01:12:00,73.0,-99.9,-100.00,ESE,120,9.0,10.0,-999,-99.99,,,-99.99,,2013-06-27 05:12:00,
2013-06-27 01:33:00,73.0,-99.9,-100.00,SE,130,12.0,12.0,-999,-99.99,,,-99.99,,2013-06-27 05:33:00,
2013-06-27 01:42:00,73.0,-99.9,-100.00,SE,130,12.0,12.0,-999,-99.99,,,-99.99,,2013-06-27 05:42:00,
2013-06-27 02:34:00,72.0,-99.9,-100.00,South,190,9.0,10.0,-999,-99.99,,,-99.99,,2013-06-27 06:34:00,
2013-06-27 02:43:00,72.0,-99.9,-100.00,South,190,9.0,10.0,-999,-99.99,,,-99.99,,2013-06-27 06:43:00,
2013-06-27 03:12:00,72.0,-99.9,-100.00,SSW,200,5.0,6.0,-999,-99.99,,,-99.99,,2013-06-27 07:12:00,
2013-06-27 03:34:00,72.0,-99.9,-100.00,SSW,200,6.0,7.0,-999,-99.99,,,-99.99,,2013-06-27 07:34:00,
2013-06-27 03:43:00,72.0,-99.9,-100.00,SSW,200,6.0,7.0,-999,-99.99,,,-99.99,,2013-06-27 07:43:00,
2013-06-27 04:11:00,72.0,-99.9,-100.00,SSE,160,5.0,5.0,-999,-99.99,,,-99.99,,2013-06-27 08:11:00,
2013-06-27 04:34:00,72.0,-99.9,-100.00,SSE,160,7.0,8.0,-999,-99.99,,,-99.99,,2013-06-27 08:34:00,
2013-06-27 04:44:00,72.0,-99.9,-100.00,SSE,160,7.0,8.0,-999,-99.99,,,-99.99,,2013-06-27 08:44:00,
2013-06-27 05:11:00,72.0,-99.9,-100.00,SSE,150,7.0,9.0,-999,-99.99,,,-99.99,,2013-06-27 09:11:00,
2013-06-27 05:22:00,72.0,-99.9,-100.00,SSE,150,7.0,9.0,-999,-99.99,,,-99.99,,2013-06-27 09:22:00,
2013-06-27 05:34:00,72.0,-99.9,-100.00,SSE,160,7.0,8.0,-999,-99.99,,,-99.99,,2013-06-27 09:34:00,
2013-06-27 05:43:00,72.0,-99.9,-100.00,SSE,160,7.0,8.0,-999,-99.99,,,-99.99,,2013-06-27 09:43:00,
2013-06-27 06:32:00,71.0,-99.9,-100.00,SSE,150,7.0,8.0,-999,-99.99,,,-99.99,,2013-06-27 10:32:00,
2013-06-27 06:44:00,71.0,-99.9,-100.00,SSE,150,7.0,8.0,-999,-99.99,,,-99.99,,2013-06-27 10:44:00,
2013-06-27 07:12:00,71.0,-99.9,-100.00,South,190,9.0,9.0,-999,-99.99,,,-99.99,,2013-06-27 11:12:00,
2013-06-27 07:22:00,71.0,-99.9,-100.00,South,190,9.0,9.0,-999,-99.99,,,-99.99,,2013-06-27 11:22:00,
2013-06-27 07:33:00,71.0,-99.9,-100.00,South,190,8.0,9.0,-999,-99.99,,,-99.99,,2013-06-27 11:33:00,
2013-06-27 07:43:00,71.0,-99.9,-100.00,South,190,8.0,9.0,-999,-99.99,,,-99.99,,2013-06-27 11:43:00,
2013-06-27 09:11:00,72.0,-99.9,-100.00,WSW,250,9.0,10.0,-999,-99.99,,,-99.99,,2013-06-27 13:11:00,
2013-06-27 09:34:00,73.0,-99.9,-100.00,West,280,8.0,9.0,-999,-99.99,,,-99.99,,2013-06-27 13:34:00,
2013-06-27 09:43:00,73.0,-99.9,-100.00,West,280,8.0,9.0,-999,-99.99,,,-99.99,,2013-06-27 13:43:00,
2013-06-27 10:12:00,73.0,-99.9,-100.00,NW,310,8.0,9.0,-999,-99.99,,,-99.99,,2013-06-27 14:12:00,
2013-06-27 10:22:00,73.0,-99.9,-100.00,NW,310,8.0,9.0,-999,-99.99,,,-99.99,,2013-06-27 14:22:00,
2013-06-27 10:33:00,73.0,-99.9,-100.00,WNW,300,7.0,8.0,-999,-99.99,,,-99.99,,2013-06-27 14:33:00,
2013-06-27 10:43:00,73.0,-99.9,-100.00,WNW,300,7.0,8.0,-999,-99.99,,,-99.99,,2013-06-27 14:43:00,
2013-06-27 11:33:00,75.0,-99.9,-100.00,NNW,340,3.0,3.0,-999,-99.99,,,-99.99,,2013-06-27 15:33:00,
2013-06-27 11:42:00,75.0,-99.9,-100.00,NNW,340,3.0,3.0,-999,-99.99,,,-99.99,,2013-06-27 15:42:00,
2013-06-27 12:34:00,75.0,-99.9,-100.00,North,360,2.0,2.0,-999,-99.99,,,-99.99,,2013-06-27 16:34:00,
2013-06-27 12:43:00,75.0,-99.9,-100.00,North,360,2.0,2.0,-999,-99.99,,,-99.99,,2013-06-27 16:43:00,
2013-06-27 13:33:00,73.0,-99.9,-100.00,NE,50,10.0,12.0,-999,-99.99,,,-99.99,,2013-06-27 17:33:00,
2013-06-27 13:43:00,73.0,-99.9,-100.00,NE,50,10.0,12.0,-999,-99.99,,,-99.99,,2013-06-27 17:43:00,
2013-06-27 14:32:00,72.0,-99.9,-100.00,ENE,70,10.0,12.0,-999,-99.99,,,-99.99,,2013-06-27 18:32:00,
2013-06-27 14:44:00,72.0,-99.9,-100.00,ENE,70,10.0,12.0,-999,-99.99,,,-99.99,,2013-06-27 18:44:00,
2013-06-27 15:11:00,73.0,-99.9,-100.00,East,100,9.0,10.0,-999,-99.99,,,-99.99,,2013-06-27 19:11:00,
2013-06-27 15:34:00,73.0,-99.9,-100.00,ESE,110,7.0,8.0,-999,-99.99,,,-99.99,,2013-06-27 19:34:00,
2013-06-27 15:43:00,73.0,-99.9,-100.00,ESE,110,7.0,8.0,-999,-99.99,,,-99.99,,2013-06-27 19:43:00,
2013-06-27 15:45:00,73.0,-99.9,-100.00,East,90,12.0,14.0,-999,-99.99,,,-99.99,,2013-06-27 19:45:00,
2013-06-27 16:40:00,73.0,-99.9,-100.00,East,90,12.0,14.0,-999,-99.99,,,-99.99,,2013-06-27 20:40:00,
2013-06-27 16:45:00,73.0,-99.9,-100.00,East,100,12.0,14.0,-999,-99.99,,,-99.99,,2013-06-27 20:45:00,
2013-06-27 17:16:00,74.0,-99.9,-100.00,East,100,12.0,13.0,-999,-99.99,,,-99.99,,2013-06-27 21:16:00,
2013-06-27 17:37:00,73.0,-99.9,-100.00,East,100,12.0,14.0,-999,-99.99,,,-99.99,,2013-06-27 21:37:00,
2013-06-27 17:45:00,73.0,-99.9,-100.00,East,90,12.0,13.0,-999,-99.99,,,-99.99,,2013-06-27 21:45:00,
2013-06-27 18:36:00,73.0,-99.9,-100.00,East,90,12.0,13.0,-999,-99.99,,,-99.99,,2013-06-27 22:36:00,
2013-06-27 18:45:00,71.0,-99.9,-100.00,NNE,30,6.0,9.0,-999,-99.99,,,-99.99,,2013-06-27 22:45:00,
2013-06-27 19:17:00,72.0,-99.9,-100.00,East,80,1.0,3.0,-999,-99.99,,,-99.99,,2013-06-27 23:17:00,
2013-06-27 19:30:00,69.0,-99.9,-100.00,North,10,27.0,30.0,-999,-99.99,,,-99.99,,2013-06-27 23:30:00,
2013-06-27 19:37:00,71.0,-99.9,-100.00,NNE,30,6.0,9.0,-999,-99.99,,,-99.99,,2013-06-27 23:37:00,
2013-06-27 20:17:00,69.0,-99.9,-100.00,North,10,27.0,30.0,-999,-99.99,,,-99.99,,2013-06-28 00:17:00,
2013-06-27 21:45:00,71.0,-99.9,-100.00,SSE,160,9.0,10.0,-999,-99.99,,,-99.99,,2013-06-28 01:45:00,
2013-06-27 22:45:00,71.0,-99.9,-100.00,SSW,200,7.0,9.0,-999,-99.99,,,-99.99,,2013-06-28 02:45:00,
2013-06-27 23:40:00,71.0,-99.9,-100.00,SSW,200,7.0,9.0,-999,-99.99,,,-99.99,,2013-06-28 03:40:00,